Time;durP1;ratioP1;P1;durP2;ratioP2;P2;SDS_P1;SDS_P2;PMS_P1;PMS_P2;Temp;Humidity;BMP_temperature;BMP_pressure;BME280_temperature;BME280_humidity;BME280_pressure;Samples;Min_cycle;Max_cycle;Signal;HPM_P1;HPM_P2
2023/12/10 00:02:14;;;;;;;7.03;3.70;;;;;;;;;;5033036;28;20037;-77
2023/12/10 00:04:39;;;;;;;4.40;2.67;;;;;;;;;;5015298;28;20271;-77
2023/12/10 00:07:05;;;;;;;5.73;3.60;;;;;;;;;;5015356;28;20025;-77
2023/12/10 00:09:30;;;;;;;5.53;2.90;;;;;;;;;;5015406;28;20263;-77
2023/12/10 00:11:56;;;;;;;5.47;2.92;;;;;;;;;;5034857;28;20198;-77
2023/12/10 00:14:21;;;;;;;5.90;3.78;;;;;;;;;;5036884;28;20067;-77
2023/12/10 00:16:46;;;;;;;6.88;3.83;;;;;;;;;;5018969;28;20018;-76
2023/12/10 00:19:11;;;;;;;6.68;3.85;;;;;;;;;;5036751;28;20056;-76
2023/12/10 00:21:38;;;;;;;6.60;3.37;;;;;;;;;;5037271;28;20021;-77
2023/12/10 00:24:04;;;;;;;6.07;3.67;;;;;;;;;;5037046;28;20297;-76
2023/12/10 00:26:29;;;;;;;5.03;3.00;;;;;;;;;;5035975;28;20033;-76
2023/12/10 00:28:54;;;;;;;3.95;2.45;;;;;;;;;;5035922;28;20033;-77
2023/12/10 00:31:19;;;;;;;6.30;3.13;;;;;;;;;;5035208;28;20044;-77
2023/12/10 00:33:45;;;;;;;6.03;2.83;;;;;;;;;;5034615;28;20278;-75
2023/12/10 00:36:10;;;;;;;4.80;2.58;;;;;;;;;;5017869;28;20029;-75
2023/12/10 00:38:35;;;;;;;4.00;2.35;;;;;;;;;;5035439;28;20029;-77
2023/12/10 00:41:00;;;;;;;4.93;3.13;;;;;;;;;;5034926;28;20551;-77
2023/12/10 00:43:26;;;;;;;5.80;3.20;;;;;;;;;;5036134;28;20374;-77
2023/12/10 00:45:52;;;;;;;4.65;3.00;;;;;;;;;;5036515;28;20773;-77
2023/12/10 00:48:18;;;;;;;4.65;2.85;;;;;;;;;;5035724;28;20025;-77
2023/12/10 00:50:43;;;;;;;5.15;3.22;;;;;;;;;;5036984;28;20075;-77
2023/12/10 00:53:08;;;;;;;4.73;2.63;;;;;;;;;;5042383;28;20392;-78
2023/12/10 00:55:33;;;;;;;4.73;2.87;;;;;;;;;;5042629;28;20365;-78
2023/12/10 00:57:58;;;;;;;4.57;2.70;;;;;;;;;;5039522;28;20757;-78
2023/12/10 01:00:29;;;;;;;2.92;2.08;;;;;;;;;;5018533;28;20761;-78
2023/12/10 01:02:56;;;;;;;4.22;2.63;;;;;;;;;;5039911;28;20021;-78
2023/12/10 01:05:23;;;;;;;4.00;2.15;;;;;;;;;;5040243;28;20056;-77
2023/12/10 01:07:49;;;;;;;6.30;1.10;;;;;;;;;;5037409;28;20465;-77
2023/12/10 01:10:14;;;;;;;3.30;2.47;;;;;;;;;;5041558;28;20044;-77
2023/12/10 01:12:39;;;;;;;4.82;2.63;;;;;;;;;;5041984;28;20255;-78
2023/12/10 01:15:05;;;;;;;4.00;2.35;;;;;;;;;;5040846;28;20065;-78
2023/12/10 01:17:31;;;;;;;2.13;1.40;;;;;;;;;;5041194;28;20056;-77
2023/12/10 01:19:59;;;;;;;3.38;2.30;;;;;;;;;;5042233;28;20028;-77
2023/12/10 01:22:24;;;;;;;1.90;1.45;;;;;;;;;;5023143;28;20036;-78
2023/12/10 01:24:50;;;;;;;2.42;1.60;;;;;;;;;;5040887;28;20018;-78
2023/12/10 01:27:17;;;;;;;3.33;2.03;;;;;;;;;;5026957;28;20492;-78
2023/12/10 01:29:42;;;;;;;3.38;1.83;;;;;;;;;;5026960;28;20064;-78
2023/12/10 01:32:10;;;;;;;2.05;1.38;;;;;;;;;;5021950;28;20048;-78
2023/12/10 01:34:35;;;;;;;4.90;1.85;;;;;;;;;;5041012;28;20034;-80
2023/12/10 01:37:00;;;;;;;2.13;1.60;;;;;;;;;;5037614;28;20079;-77
2023/12/10 01:39:26;;;;;;;3.78;2.10;;;;;;;;;;5019120;28;20029;-77
2023/12/10 01:41:51;;;;;;;2.70;1.70;;;;;;;;;;5036255;28;20040;-76
2023/12/10 01:44:16;;;;;;;1.90;1.37;;;;;;;;;;5018186;28;20026;-77
2023/12/10 01:46:42;;;;;;;2.37;1.50;;;;;;;;;;5018530;28;20257;-77
2023/12/10 01:49:09;;;;;;;2.80;1.73;;;;;;;;;;5036458;28;20718;-78
2023/12/10 01:51:36;;;;;;;2.50;1.70;;;;;;;;;;5038850;28;20103;-78
2023/12/10 01:54:02;;;;;;;2.72;1.70;;;;;;;;;;5018988;28;20079;-78
2023/12/10 01:56:29;;;;;;;2.63;1.60;;;;;;;;;;5038150;28;20423;-78
2023/12/10 01:58:55;;;;;;;1.95;1.38;;;;;;;;;;5022608;28;20030;-77
2023/12/10 02:01:24;;;;;;;4.00;1.40;;;;;;;;;;5036127;28;20086;-78
2023/12/10 02:03:50;;;;;;;1.45;0.95;;;;;;;;;;5040696;28;20079;-78
2023/12/10 02:06:15;;;;;;;2.58;1.15;;;;;;;;;;5039637;28;20104;-77
2023/12/10 02:08:40;;;;;;;1.37;1.07;;;;;;;;;;5035967;28;20473;-77
2023/12/10 02:11:06;;;;;;;2.15;1.27;;;;;;;;;;5036087;28;20859;-78
2023/12/10 02:13:31;;;;;;;2.00;1.20;;;;;;;;;;5035606;28;20033;-77
2023/12/10 02:15:56;;;;;;;1.33;1.13;;;;;;;;;;5036801;28;20025;-78
2023/12/10 02:18:21;;;;;;;1.60;1.13;;;;;;;;;;5035800;28;20040;-78
2023/12/10 02:20:48;;;;;;;1.40;1.10;;;;;;;;;;5035980;28;20738;-77
2023/12/10 02:23:27;;;;;;;2.53;1.52;;;;;;;;;;5035984;28;20473;-77
2023/12/10 02:25:52;;;;;;;2.53;1.08;;;;;;;;;;5035687;28;20029;-77
2023/12/10 02:28:22;;;;;;;2.20;1.42;;;;;;;;;;5036782;28;20419;-77
2023/12/10 02:30:47;;;;;;;1.90;1.27;;;;;;;;;;5034690;28;20026;-77
2023/12/10 02:33:12;;;;;;;1.52;1.13;;;;;;;;;;5034638;28;20037;-77
2023/12/10 02:35:38;;;;;;;1.75;1.10;;;;;;;;;;5017579;28;20420;-77
2023/12/10 02:38:04;;;;;;;1.80;1.20;;;;;;;;;;5034922;28;20026;-77
2023/12/10 02:40:30;;;;;;;0.80;0.68;;;;;;;;;;5017503;28;20078;-77
2023/12/10 02:42:55;;;;;;;2.13;1.10;;;;;;;;;;5034243;28;20104;-77
2023/12/10 02:45:20;;;;;;;1.88;1.10;;;;;;;;;;5035075;28;20040;-77
2023/12/10 02:47:45;;;;;;;1.90;1.20;;;;;;;;;;5033756;28;20029;-76
2023/12/10 02:50:11;;;;;;;1.88;1.20;;;;;;;;;;5016919;28;20045;-77
2023/12/10 02:52:36;;;;;;;1.48;1.10;;;;;;;;;;5033765;28;20499;-77
2023/12/10 02:55:02;;;;;;;1.33;1.05;;;;;;;;;;5033838;28;20099;-77
2023/12/10 02:57:27;;;;;;;1.15;0.80;;;;;;;;;;5034502;28;20030;-77
2023/12/10 02:59:53;;;;;;;1.30;1.08;;;;;;;;;;5035045;28;20029;-77
2023/12/10 03:02:18;;;;;;;2.30;1.30;;;;;;;;;;5035685;28;20036;-77
2023/12/10 03:04:43;;;;;;;1.08;0.90;;;;;;;;;;5034923;28;20064;-78
2023/12/10 03:07:09;;;;;;;0.97;0.87;;;;;;;;;;5017636;28;20029;-77
2023/12/10 03:09:34;;;;;;;2.00;1.10;;;;;;;;;;5035923;28;20262;-78
2023/12/10 03:11:59;;;;;;;6.93;1.30;;;;;;;;;;5036096;28;20045;-77
2023/12/10 03:14:24;;;;;;;1.42;0.90;;;;;;;;;;5036454;28;20067;-78
2023/12/10 03:16:49;;;;;;;0.82;0.80;;;;;;;;;;5024177;28;20060;-78
2023/12/10 03:19:15;;;;;;;0.70;0.67;;;;;;;;;;5041559;28;20101;-78
2023/12/10 03:21:40;;;;;;;1.40;0.82;;;;;;;;;;5036189;28;20262;-78
2023/12/10 03:24:05;;;;;;;0.87;0.77;;;;;;;;;;5035466;28;20028;-77
2023/12/10 03:26:30;;;;;;;1.90;0.93;;;;;;;;;;5035443;28;20270;-77
2023/12/10 03:28:56;;;;;;;0.90;0.77;;;;;;;;;;5038426;28;20263;-77
2023/12/10 03:31:21;;;;;;;1.20;0.90;;;;;;;;;;5038570;28;20269;-77
2023/12/10 03:33:46;;;;;;;2.17;0.90;;;;;;;;;;5033440;28;20283;-76
2023/12/10 03:36:13;;;;;;;2.58;1.02;;;;;;;;;;5033546;28;20346;-77
2023/12/10 03:38:38;;;;;;;1.92;0.85;;;;;;;;;;5033899;28;20059;-77
2023/12/10 03:41:04;;;;;;;1.20;0.90;;;;;;;;;;5036439;28;20026;-77
2023/12/10 03:43:29;;;;;;;0.70;0.70;;;;;;;;;;5034774;28;20393;-77
2023/12/10 03:45:54;;;;;;;0.73;0.73;;;;;;;;;;5016625;28;20021;-78
2023/12/10 03:48:19;;;;;;;1.10;0.77;;;;;;;;;;5037803;28;20033;-77
2023/12/10 03:50:45;;;;;;;1.07;0.80;;;;;;;;;;5037836;28;20265;-77
2023/12/10 03:53:10;;;;;;;0.90;0.80;;;;;;;;;;5037833;28;20251;-77
2023/12/10 03:55:36;;;;;;;1.42;0.82;;;;;;;;;;5037707;28;20080;-78
2023/12/10 03:58:01;;;;;;;1.17;0.95;;;;;;;;;;5038541;28;20026;-77
2023/12/10 04:00:26;;;;;;;0.73;0.73;;;;;;;;;;5021300;28;20025;-78
2023/12/10 04:02:51;;;;;;;2.55;0.88;;;;;;;;;;5038700;28;20273;-77
2023/12/10 04:05:17;;;;;;;1.13;1.00;;;;;;;;;;5037795;28;20021;-76
2023/12/10 04:07:42;;;;;;;1.17;0.80;;;;;;;;;;5044568;28;20484;-78
2023/12/10 04:10:08;;;;;;;1.25;1.00;;;;;;;;;;5045279;28;20373;-78
2023/12/10 04:12:33;;;;;;;1.23;1.00;;;;;;;;;;5046612;28;20028;-78
2023/12/10 04:14:58;;;;;;;1.75;1.00;;;;;;;;;;5044827;28;20021;-78
2023/12/10 04:17:23;;;;;;;1.05;0.93;;;;;;;;;;5046591;28;20017;-78
2023/12/10 04:19:49;;;;;;;1.20;0.90;;;;;;;;;;5029376;28;20029;-77
2023/12/10 04:22:14;;;;;;;1.80;1.20;;;;;;;;;;5029259;28;20022;-78
2023/12/10 04:24:39;;;;;;;1.55;1.10;;;;;;;;;;5047852;28;20029;-79
2023/12/10 04:27:04;;;;;;;1.38;1.00;;;;;;;;;;5048659;28;20067;-79
2023/12/10 04:29:30;;;;;;;1.50;1.10;;;;;;;;;;5030008;28;20021;-78
2023/12/10 04:31:55;;;;;;;2.92;0.95;;;;;;;;;;5031410;28;20093;-78
2023/12/10 04:34:20;;;;;;;1.17;0.90;;;;;;;;;;5049628;28;20032;-78
2023/12/10 04:36:45;;;;;;;3.00;1.17;;;;;;;;;;5055806;28;20255;-78
2023/12/10 04:39:11;;;;;;;1.20;1.00;;;;;;;;;;5039211;28;20056;-78
2023/12/10 04:41:36;;;;;;;1.83;1.05;;;;;;;;;;5054837;28;20021;-78
2023/12/10 04:44:01;;;;;;;1.83;1.10;;;;;;;;;;5046376;28;20028;-78
2023/12/10 04:46:27;;;;;;;1.58;1.05;;;;;;;;;;5046095;28;20030;-78
2023/12/10 04:48:52;;;;;;;2.78;1.33;;;;;;;;;;5046202;28;20116;-78
2023/12/10 04:51:17;;;;;;;2.73;1.20;;;;;;;;;;5024040;28;20469;-77
2023/12/10 04:53:42;;;;;;;1.73;1.25;;;;;;;;;;5020825;28;20843;-78
2023/12/10 04:56:09;;;;;;;3.42;1.13;;;;;;;;;;5041565;28;20072;-78
2023/12/10 04:58:34;;;;;;;1.98;1.08;;;;;;;;;;5041795;28;20455;-78
2023/12/10 05:00:59;;;;;;;1.50;0.90;;;;;;;;;;5042615;28;20021;-78
2023/12/10 05:03:24;;;;;;;2.13;1.10;;;;;;;;;;5025183;28;20492;-78
2023/12/10 05:05:49;;;;;;;1.33;1.00;;;;;;;;;;5044514;28;20037;-78
2023/12/10 05:08:15;;;;;;;1.40;1.10;;;;;;;;;;5021920;28;20246;-77
2023/12/10 05:10:40;;;;;;;1.95;1.25;;;;;;;;;;5037075;28;20312;-78
2023/12/10 05:13:06;;;;;;;1.60;1.25;;;;;;;;;;5036874;28;20035;-77
2023/12/10 05:15:31;;;;;;;1.73;1.00;;;;;;;;;;5019789;28;20025;-77
2023/12/10 05:18:01;;;;;;;3.60;1.23;;;;;;;;;;5037675;28;20030;-77
2023/12/10 05:20:26;;;;;;;2.53;1.40;;;;;;;;;;5038459;28;20267;-78
2023/12/10 05:22:51;;;;;;;1.77;1.20;;;;;;;;;;5019993;28;20112;-78
2023/12/10 05:25:16;;;;;;;4.53;1.27;;;;;;;;;;5038649;28;20025;-78
2023/12/10 05:27:42;;;;;;;2.13;1.40;;;;;;;;;;5038434;28;20254;-78
2023/12/10 05:30:07;;;;;;;2.22;1.15;;;;;;;;;;5020325;28;20053;-78
2023/12/10 05:32:32;;;;;;;1.40;1.20;;;;;;;;;;5019318;28;20029;-78
2023/12/10 05:34:57;;;;;;;2.40;1.20;;;;;;;;;;5019871;28;20030;-77
2023/12/10 05:37:22;;;;;;;1.50;1.20;;;;;;;;;;5038127;28;20266;-78
2023/12/10 05:39:48;;;;;;;2.50;1.30;;;;;;;;;;5037897;28;20033;-77
2023/12/10 05:42:13;;;;;;;3.55;1.25;;;;;;;;;;5020374;28;20251;-77
2023/12/10 05:44:38;;;;;;;1.80;1.00;;;;;;;;;;5020089;28;20094;-78
2023/12/10 05:47:03;;;;;;;2.10;1.40;;;;;;;;;;5037008;28;20064;-77
2023/12/10 05:49:29;;;;;;;2.90;1.30;;;;;;;;;;5020132;28;20267;-78
2023/12/10 05:51:54;;;;;;;2.72;1.05;;;;;;;;;;5018881;28;20252;-78
2023/12/10 05:54:19;;;;;;;2.53;1.23;;;;;;;;;;5018723;28;20057;-78
2023/12/10 05:56:45;;;;;;;1.63;1.20;;;;;;;;;;5037042;28;20033;-78
2023/12/10 05:59:10;;;;;;;2.75;1.30;;;;;;;;;;5037024;28;20478;-77
2023/12/10 06:01:35;;;;;;;2.28;1.52;;;;;;;;;;5018757;28;20396;-78
2023/12/10 06:04:00;;;;;;;3.97;1.37;;;;;;;;;;5017747;28;20025;-78
2023/12/10 06:06:25;;;;;;;3.60;1.60;;;;;;;;;;5036853;28;20267;-78
2023/12/10 06:08:51;;;;;;;1.93;1.33;;;;;;;;;;5036667;28;20473;-78
2023/12/10 06:11:17;;;;;;;3.40;1.35;;;;;;;;;;5037855;28;20255;-79
2023/12/10 06:13:42;;;;;;;3.55;1.50;;;;;;;;;;5042774;28;20036;-78
2023/12/10 06:16:08;;;;;;;2.30;1.40;;;;;;;;;;5043362;28;20447;-78
2023/12/10 06:18:33;;;;;;;2.72;1.35;;;;;;;;;;5039992;28;20029;-78
2023/12/10 06:20:58;;;;;;;4.82;1.20;;;;;;;;;;5019545;28;20051;-77
2023/12/10 06:23:23;;;;;;;2.17;1.20;;;;;;;;;;5018303;28;20021;-78
2023/12/10 06:25:50;;;;;;;2.90;1.48;;;;;;;;;;5034838;28;20316;-78
2023/12/10 06:28:15;;;;;;;3.38;1.40;;;;;;;;;;5035068;28;20025;-78
2023/12/10 06:30:40;;;;;;;1.90;1.40;;;;;;;;;;5034745;28;20522;-78
2023/12/10 06:33:06;;;;;;;2.75;1.75;;;;;;;;;;5041354;28;20032;-78
2023/12/10 06:35:31;;;;;;;4.70;1.90;;;;;;;;;;5043076;28;20025;-77
2023/12/10 06:37:56;;;;;;;3.15;1.75;;;;;;;;;;5017731;28;20320;-78
2023/12/10 06:40:21;;;;;;;3.03;1.93;;;;;;;;;;5018417;28;20044;-77
2023/12/10 06:42:47;;;;;;;3.63;2.08;;;;;;;;;;5034833;28;20291;-78
2023/12/10 06:45:12;;;;;;;4.10;2.17;;;;;;;;;;5017239;28;20036;-78
2023/12/10 06:47:38;;;;;;;7.18;2.33;;;;;;;;;;5017555;28;20052;-78
2023/12/10 06:50:04;;;;;;;8.57;3.15;;;;;;;;;;5034834;28;20030;-78
2023/12/10 06:52:29;;;;;;;4.53;2.50;;;;;;;;;;5034884;28;20033;-77
2023/12/10 06:54:54;;;;;;;7.10;2.67;;;;;;;;;;5035756;28;20064;-78
2023/12/10 06:57:19;;;;;;;5.75;2.30;;;;;;;;;;5036333;28;20029;-77
2023/12/10 06:59:44;;;;;;;3.63;1.95;;;;;;;;;;5035912;28;20065;-77
2023/12/10 07:02:10;;;;;;;4.20;1.53;;;;;;;;;;5035421;28;20081;-77
2023/12/10 07:04:36;;;;;;;3.20;1.33;;;;;;;;;;5038382;28;20633;-77
2023/12/10 07:07:01;;;;;;;6.95;2.08;;;;;;;;;;5037081;28;20301;-78
2023/12/10 07:09:27;;;;;;;3.92;1.58;;;;;;;;;;5040860;28;20026;-79
2023/12/10 07:11:52;;;;;;;4.28;1.58;;;;;;;;;;5040550;28;20037;-78
2023/12/10 07:14:17;;;;;;;5.68;1.67;;;;;;;;;;5039284;28;20029;-78
2023/12/10 07:16:42;;;;;;;2.97;1.67;;;;;;;;;;5038731;28;20480;-79
2023/12/10 07:19:07;;;;;;;4.78;1.75;;;;;;;;;;5038337;28;20738;-78
2023/12/10 07:21:33;;;;;;;7.82;2.13;;;;;;;;;;5019910;28;20025;-79
2023/12/10 07:23:58;;;;;;;10.73;2.40;;;;;;;;;;5041017;28;20032;-79
2023/12/10 07:26:24;;;;;;;3.88;1.60;;;;;;;;;;5042253;28;20255;-78
2023/12/10 07:28:51;;;;;;;10.85;1.67;;;;;;;;;;5026212;28;20120;-78
2023/12/10 07:31:16;;;;;;;8.45;2.00;;;;;;;;;;5044141;28;20030;-78
2023/12/10 07:33:41;;;;;;;6.25;2.08;;;;;;;;;;5045192;28;20032;-78
2023/12/10 07:36:07;;;;;;;6.67;1.80;;;;;;;;;;5045753;28;20032;-78
2023/12/10 07:38:32;;;;;;;10.65;1.90;;;;;;;;;;5043470;28;20259;-78
2023/12/10 07:40:58;;;;;;;9.02;2.22;;;;;;;;;;5027358;28;20064;-78
2023/12/10 07:43:23;;;;;;;10.73;2.33;;;;;;;;;;5044654;28;20017;-78
2023/12/10 07:45:48;;;;;;;8.02;2.13;;;;;;;;;;5038074;28;20041;-76
2023/12/10 07:48:13;;;;;;;10.17;3.07;;;;;;;;;;5020019;28;20021;-78
2023/12/10 07:50:39;;;;;;;9.03;3.10;;;;;;;;;;5037582;28;20304;-78
2023/12/10 07:53:04;;;;;;;9.13;3.07;;;;;;;;;;5036815;28;20270;-78
2023/12/10 07:55:29;;;;;;;9.47;3.00;;;;;;;;;;5037568;28;20250;-77
2023/12/10 07:57:55;;;;;;;14.23;4.20;;;;;;;;;;5020700;28;20320;-79
2023/12/10 08:00:20;;;;;;;4.57;2.63;;;;;;;;;;5022640;28;20258;-77
2023/12/10 08:02:45;;;;;;;9.82;2.95;;;;;;;;;;5023286;28;20036;-78
2023/12/10 08:05:11;;;;;;;13.17;3.00;;;;;;;;;;5043888;28;20480;-79
2023/12/10 08:07:36;;;;;;;13.88;3.13;;;;;;;;;;5028040;28;20259;-78
2023/12/10 08:10:01;;;;;;;16.17;3.37;;;;;;;;;;5046420;28;20025;-79
2023/12/10 08:12:26;;;;;;;10.98;3.15;;;;;;;;;;5046697;28;20257;-78
2023/12/10 08:14:52;;;;;;;11.80;3.13;;;;;;;;;;5051325;28;20029;-78
2023/12/10 08:17:17;;;;;;;11.00;2.87;;;;;;;;;;5053745;28;20426;-78
2023/12/10 08:19:42;;;;;;;13.00;3.50;;;;;;;;;;5035563;28;20263;-80
2023/12/10 08:22:07;;;;;;;17.10;3.57;;;;;;;;;;5048880;28;20266;-79
2023/12/10 08:24:33;;;;;;;11.75;3.03;;;;;;;;;;5047657;28;20653;-79
2023/12/10 08:26:59;;;;;;;13.38;2.95;;;;;;;;;;5049297;28;20028;-79
2023/12/10 08:29:24;;;;;;;21.15;5.53;;;;;;;;;;5029779;28;20021;-79
2023/12/10 08:31:50;;;;;;;15.18;4.38;;;;;;;;;;5045031;28;20041;-79
2023/12/10 08:34:15;;;;;;;18.30;3.55;;;;;;;;;;5028413;28;20037;-78
2023/12/10 08:36:40;;;;;;;9.23;2.45;;;;;;;;;;5046214;28;20029;-79
2023/12/10 08:39:06;;;;;;;16.25;2.90;;;;;;;;;;5047194;28;20029;-78
2023/12/10 08:41:31;;;;;;;15.30;3.15;;;;;;;;;;5028979;28;20022;-79
2023/12/10 08:43:57;;;;;;;10.02;2.53;;;;;;;;;;5047422;28;20583;-78
2023/12/10 08:46:22;;;;;;;17.07;2.10;;;;;;;;;;5029621;28;20032;-79
2023/12/10 08:48:47;;;;;;;9.73;2.30;;;;;;;;;;5029667;28;20259;-79
2023/12/10 08:51:12;;;;;;;17.73;2.58;;;;;;;;;;5046069;28;20064;-76
2023/12/10 08:53:38;;;;;;;17.88;2.28;;;;;;;;;;5042010;28;20048;-79
2023/12/10 08:56:03;;;;;;;12.70;1.73;;;;;;;;;;5041910;28;20053;-78
2023/12/10 08:58:30;;;;;;;11.60;2.20;;;;;;;;;;5023976;28;20266;-79
2023/12/10 09:00:58;;;;;;;10.57;1.98;;;;;;;;;;5029764;28;20057;-79
2023/12/10 09:03:23;;;;;;;16.60;1.98;;;;;;;;;;5049220;28;20456;-79
2023/12/10 09:05:49;;;;;;;13.48;2.25;;;;;;;;;;5049214;28;20034;-79
2023/12/10 09:08:14;;;;;;;11.57;2.03;;;;;;;;;;5048969;28;20030;-79
2023/12/10 09:10:39;;;;;;;12.43;2.17;;;;;;;;;;5032327;28;20443;-79
2023/12/10 09:13:04;;;;;;;12.93;1.77;;;;;;;;;;5029893;28;20022;-79
2023/12/10 09:15:30;;;;;;;7.70;1.60;;;;;;;;;;5044001;28;20033;-77
2023/12/10 09:17:55;;;;;;;8.83;1.83;;;;;;;;;;5025775;28;20041;-78
2023/12/10 09:20:20;;;;;;;5.87;1.33;;;;;;;;;;5025166;28;20273;-77
2023/12/10 09:22:45;;;;;;;11.10;2.20;;;;;;;;;;5026239;28;20290;-78
2023/12/10 09:25:10;;;;;;;11.97;2.17;;;;;;;;;;5039570;28;20080;-78
2023/12/10 09:27:36;;;;;;;9.50;2.10;;;;;;;;;;5028559;28;20259;-78
2023/12/10 09:30:02;;;;;;;11.07;1.87;;;;;;;;;;5025091;28;20048;-79
2023/12/10 09:32:27;;;;;;;12.93;2.17;;;;;;;;;;5043599;28;20262;-79
2023/12/10 09:34:55;;;;;;;16.10;2.60;;;;;;;;;;5024066;28;20021;-79
2023/12/10 09:37:21;;;;;;;10.82;1.88;;;;;;;;;;5040801;28;20056;-78
2023/12/10 09:39:46;;;;;;;12.85;2.30;;;;;;;;;;5040000;28;20025;-79
2023/12/10 09:42:14;;;;;;;10.65;2.17;;;;;;;;;;5042802;28;20489;-78
2023/12/10 09:44:39;;;;;;;18.05;3.15;;;;;;;;;;5045722;28;20053;-78
2023/12/10 09:47:09;;;;;;;11.80;2.03;;;;;;;;;;5029139;28;20025;-78
2023/12/10 09:49:37;;;;;;;8.55;1.90;;;;;;;;;;5045312;28;20251;-78
2023/12/10 09:52:05;;;;;;;10.80;1.90;;;;;;;;;;5025922;28;20056;-78
2023/12/10 09:54:30;;;;;;;9.98;1.60;;;;;;;;;;5042773;28;20105;-78
2023/12/10 09:56:56;;;;;;;6.27;1.70;;;;;;;;;;5043783;28;20040;-77
2023/12/10 09:59:21;;;;;;;10.60;1.90;;;;;;;;;;5023808;28;20259;-78
2023/12/10 10:01:49;;;;;;;7.13;1.85;;;;;;;;;;5043092;28;20034;-78
2023/12/10 10:04:14;;;;;;;5.85;1.45;;;;;;;;;;5023138;28;20026;-80
2023/12/10 10:06:39;;;;;;;7.40;1.73;;;;;;;;;;5021899;28;20028;-78
2023/12/10 10:09:05;;;;;;;10.45;2.20;;;;;;;;;;5041324;28;20022;-77
2023/12/10 10:11:30;;;;;;;6.47;1.55;;;;;;;;;;5023625;28;20022;-79
2023/12/10 10:13:55;;;;;;;9.10;2.33;;;;;;;;;;5047774;28;20022;-79
2023/12/10 10:16:20;;;;;;;12.82;2.05;;;;;;;;;;5029768;28;20025;-79
2023/12/10 10:18:47;;;;;;;9.70;1.80;;;;;;;;;;5047456;28;20034;-79
2023/12/10 10:21:12;;;;;;;9.98;2.00;;;;;;;;;;5046856;28;20029;-77
2023/12/10 10:23:38;;;;;;;10.13;1.98;;;;;;;;;;5044999;28;20032;-78
2023/12/10 10:26:03;;;;;;;7.45;1.58;;;;;;;;;;5040322;28;20488;-77
2023/12/10 10:28:30;;;;;;;11.52;1.95;;;;;;;;;;5040021;28;20075;-78
2023/12/10 10:30:56;;;;;;;8.73;1.70;;;;;;;;;;5020214;28;20025;-77
2023/12/10 10:33:25;;;;;;;8.35;2.05;;;;;;;;;;5039564;28;20025;-77
2023/12/10 10:35:52;;;;;;;7.72;2.00;;;;;;;;;;5038653;28;20075;-78
2023/12/10 10:38:21;;;;;;;14.85;2.00;;;;;;;;;;5041934;28;20017;-79
2023/12/10 10:40:47;;;;;;;11.18;1.92;;;;;;;;;;5029063;28;20029;-79
2023/12/10 10:43:13;;;;;;;8.07;2.03;;;;;;;;;;5012604;28;20040;-79
2023/12/10 10:45:38;;;;;;;8.98;1.90;;;;;;;;;;5047489;28;20026;-80
2023/12/10 10:48:04;;;;;;;10.52;2.03;;;;;;;;;;5044443;28;20021;-79
2023/12/10 10:50:33;;;;;;;6.95;1.92;;;;;;;;;;5009851;28;20029;-77
2023/12/10 10:52:59;;;;;;;6.95;1.65;;;;;;;;;;5026217;28;20026;-79
2023/12/10 10:55:25;;;;;;;6.68;1.70;;;;;;;;;;5041989;28;20033;-79
2023/12/10 10:57:50;;;;;;;12.25;4.32;;;;;;;;;;5020519;28;20083;-77
2023/12/10 11:00:18;;;;;;;24.97;8.23;;;;;;;;;;5040165;28;20061;-77
2023/12/10 11:02:48;;;;;;;10.38;2.47;;;;;;;;;;5038647;28;20298;-78
2023/12/10 11:05:13;;;;;;;6.80;1.80;;;;;;;;;;5041622;28;20052;-79
2023/12/10 11:07:40;;;;;;;8.93;1.98;;;;;;;;;;5043724;28;20033;-78
2023/12/10 11:10:06;;;;;;;9.00;3.60;;;;;;;;;;5043688;28;20025;-79
2023/12/10 11:12:42;;;;;;;10.57;2.40;;;;;;;;;;5020681;28;20021;-78
2023/12/10 11:15:13;;;;;;;9.73;1.80;;;;;;;;;;5037589;28;20087;-79
2023/12/10 11:17:52;;;;;;;7.80;1.50;;;;;;;;;;5037574;28;20025;-79
2023/12/10 11:20:36;;;;;;;6.93;1.27;;;;;;;;;;5036737;28;20030;-77
2023/12/10 11:23:12;;;;;;;7.20;1.40;;;;;;;;;;5034541;28;20101;-78
2023/12/10 11:25:38;;;;;;;9.73;1.73;;;;;;;;;;5036288;28;20083;-78
2023/12/10 11:28:15;;;;;;;8.55;1.52;;;;;;;;;;5017555;28;20026;-77
2023/12/10 11:30:41;;;;;;;3.45;1.50;;;;;;;;;;5035596;28;20029;-77
2023/12/10 11:33:08;;;;;;;10.75;2.28;;;;;;;;;;5034706;28;20026;-78
2023/12/10 11:35:34;;;;;;;8.15;1.88;;;;;;;;;;5034605;28;20135;-77
2023/12/10 11:38:00;;;;;;;5.97;1.50;;;;;;;;;;5034206;28;20069;-77
2023/12/10 11:40:26;;;;;;;6.20;1.85;;;;;;;;;;5033637;28;20025;-77
2023/12/10 11:42:51;;;;;;;4.68;1.25;;;;;;;;;;5015550;28;20028;-77
2023/12/10 11:45:16;;;;;;;5.57;1.30;;;;;;;;;;5034030;28;20555;-77
2023/12/10 11:47:43;;;;;;;7.80;2.03;;;;;;;;;;5032515;28;20036;-76
2023/12/10 11:50:09;;;;;;;6.15;1.27;;;;;;;;;;5033825;28;20236;-77
2023/12/10 11:52:34;;;;;;;9.88;2.33;;;;;;;;;;5036875;28;20027;-77
2023/12/10 11:54:59;;;;;;;6.68;1.65;;;;;;;;;;5038913;28;20053;-78
2023/12/10 11:57:25;;;;;;;6.95;1.77;;;;;;;;;;5042195;28;20028;-77
2023/12/10 11:59:51;;;;;;;10.05;1.83;;;;;;;;;;5042270;28;20091;-73
2023/12/10 12:02:16;;;;;;;12.82;3.15;;;;;;;;;;5031680;28;20036;-74
2023/12/10 12:04:42;;;;;;;9.02;2.28;;;;;;;;;;5030480;28;20579;-74
2023/12/10 12:07:25;;;;;;;6.32;1.75;;;;;;;;;;5014845;28;20073;-74
2023/12/10 12:09:51;;;;;;;6.65;1.55;;;;;;;;;;5035959;28;20396;-75
2023/12/10 12:12:19;;;;;;;6.63;1.65;;;;;;;;;;5036566;28;20044;-75
2023/12/10 12:14:44;;;;;;;7.40;1.77;;;;;;;;;;5033845;28;20022;-76
2023/12/10 12:17:12;;;;;;;10.95;2.42;;;;;;;;;;5035224;28;20021;-75
2023/12/10 12:19:37;;;;;;;6.05;1.50;;;;;;;;;;5018334;28;20029;-76
2023/12/10 12:22:02;;;;;;;7.22;1.55;;;;;;;;;;5018320;28;20040;-76
2023/12/10 12:24:28;;;;;;;7.43;1.55;;;;;;;;;;5018216;28;20025;-76
2023/12/10 12:26:54;;;;;;;7.28;1.77;;;;;;;;;;5019567;28;20037;-75
2023/12/10 12:29:19;;;;;;;7.35;1.60;;;;;;;;;;5018778;28;20502;-75
2023/12/10 12:31:44;;;;;;;5.32;1.63;;;;;;;;;;5018868;28;20031;-74
2023/12/10 12:34:56;;;;;;;8.30;1.60;;;;;;;;;;5018893;28;20029;-74
2023/12/10 12:37:22;;;;;;;5.32;1.27;;;;;;;;;;5004893;28;20041;-73
2023/12/10 12:39:47;;;;;;;8.50;1.75;;;;;;;;;;5019614;28;20468;-76
2023/12/10 12:42:12;;;;;;;5.22;1.05;;;;;;;;;;5018788;28;20104;-77
2023/12/10 12:44:40;;;;;;;5.30;1.40;;;;;;;;;;5020738;28;20047;-78
2023/12/10 12:47:05;;;;;;;7.65;1.40;;;;;;;;;;5022089;28;20036;-78
2023/12/10 12:49:30;;;;;;;5.25;1.67;;;;;;;;;;5022046;28;20101;-77
2023/12/10 12:51:56;;;;;;;7.63;1.48;;;;;;;;;;5024182;28;20048;-77
2023/12/10 12:54:21;;;;;;;5.55;1.60;;;;;;;;;;5023195;28;20025;-79
2023/12/10 12:56:46;;;;;;;6.00;1.30;;;;;;;;;;5025020;28;20024;-78
2023/12/10 12:59:13;;;;;;;5.20;1.25;;;;;;;;;;5021973;28;20022;-78
2023/12/10 13:01:41;;;;;;;10.52;1.67;;;;;;;;;;5027092;28;20017;-78
2023/12/10 13:04:07;;;;;;;6.93;1.52;;;;;;;;;;5028486;28;20030;-79
2023/12/10 13:06:32;;;;;;;8.57;1.40;;;;;;;;;;5031231;28;20021;-79
2023/12/10 13:08:57;;;;;;;10.32;1.67;;;;;;;;;;5028120;28;20026;-79
2023/12/10 13:11:23;;;;;;;7.75;1.58;;;;;;;;;;5027581;28;20033;-79
2023/12/10 13:13:48;;;;;;;6.43;1.50;;;;;;;;;;5021564;28;20436;-77
2023/12/10 13:16:13;;;;;;;9.85;1.40;;;;;;;;;;5016079;28;20059;-76
2023/12/10 13:18:39;;;;;;;7.78;1.45;;;;;;;;;;5015850;28;20025;-76
2023/12/10 13:21:04;;;;;;;11.65;2.55;;;;;;;;;;5015355;28;20617;-77
2023/12/10 13:23:30;;;;;;;8.95;2.05;;;;;;;;;;5014758;28;20055;-78
2023/12/10 13:25:55;;;;;;;10.90;1.70;;;;;;;;;;5014845;28;20033;-78
2023/12/10 13:28:21;;;;;;;6.30;2.08;;;;;;;;;;5015052;28;20069;-77
2023/12/10 13:30:47;;;;;;;8.68;1.50;;;;;;;;;;5018172;28;20388;-79
2023/12/10 13:33:12;;;;;;;8.20;1.90;;;;;;;;;;5017624;28;20105;-77
2023/12/10 13:35:37;;;;;;;6.60;1.50;;;;;;;;;;5017773;28;20026;-80
2023/12/10 13:38:02;;;;;;;9.52;1.48;;;;;;;;;;5020231;28;20025;-79
2023/12/10 13:40:28;;;;;;;6.18;1.48;;;;;;;;;;5020167;28;20117;-79
2023/12/10 13:42:53;;;;;;;8.45;1.63;;;;;;;;;;5020923;28;20048;-78
2023/12/10 13:45:18;;;;;;;8.85;2.78;;;;;;;;;;5024048;28;20431;-79
2023/12/10 13:47:43;;;;;;;5.60;1.38;;;;;;;;;;5024771;28;20028;-80
2023/12/10 13:50:09;;;;;;;9.20;1.70;;;;;;;;;;5038720;28;20021;-76
2023/12/10 13:52:34;;;;;;;10.95;2.13;;;;;;;;;;5019374;28;20111;-78
2023/12/10 13:54:59;;;;;;;5.10;1.47;;;;;;;;;;5037407;28;20048;-78
2023/12/10 13:57:26;;;;;;;7.80;1.57;;;;;;;;;;5036744;28;20259;-78
2023/12/10 13:59:52;;;;;;;7.60;1.35;;;;;;;;;;5020508;28;20321;-79
2023/12/10 14:02:17;;;;;;;8.15;1.88;;;;;;;;;;5039493;28;20018;-78
2023/12/10 14:04:43;;;;;;;11.20;1.48;;;;;;;;;;5021955;28;20087;-78
2023/12/10 14:07:08;;;;;;;7.65;1.58;;;;;;;;;;5040242;28;20036;-78
2023/12/10 14:09:34;;;;;;;9.40;1.60;;;;;;;;;;5038147;28;20033;-78
2023/12/10 14:12:00;;;;;;;8.40;1.48;;;;;;;;;;5037830;28;20278;-78
2023/12/10 14:14:25;;;;;;;8.25;1.40;;;;;;;;;;5036452;28;20063;-78
2023/12/10 14:16:52;;;;;;;7.40;1.53;;;;;;;;;;5035246;28;20112;-77
2023/12/10 14:19:18;;;;;;;7.30;1.67;;;;;;;;;;5036749;28;20283;-77
2023/12/10 14:21:43;;;;;;;8.67;1.67;;;;;;;;;;5037748;28;20403;-78
2023/12/10 14:24:11;;;;;;;7.85;1.52;;;;;;;;;;5036082;28;20354;-77
2023/12/10 14:26:36;;;;;;;4.88;1.27;;;;;;;;;;5016577;28;20452;-78
2023/12/10 14:29:01;;;;;;;10.17;1.37;;;;;;;;;;5037105;28;20038;-78
2023/12/10 14:31:27;;;;;;;5.45;1.52;;;;;;;;;;5016392;28;20277;-77
2023/12/10 14:33:52;;;;;;;9.27;1.70;;;;;;;;;;5034089;28;20524;-75